Time;durP1;ratioP1;P1;durP2;ratioP2;P2;SDS_P1;SDS_P2;PMS_P1;PMS_P2;Temp;Humidity;BMP_temperature;BMP_pressure;BME280_temperature;BME280_humidity;BME280_pressure;Samples;Min_cycle;Max_cycle;Signal;HPM_P1;HPM_P2
2022/12/25 00:02:13;;;;;;;2.60;2.28;;;10.20;88.40;;;;;;4987582;28;20069;-61
2022/12/25 00:04:39;;;;;;;3.22;2.42;;;10.10;88.40;;;;;;4988650;28;20050;-60
2022/12/25 00:07:04;;;;;;;2.97;2.63;;;10.10;88.50;;;;;;4987706;28;20370;-62
2022/12/25 00:09:30;;;;;;;4.05;2.38;;;10.00;88.50;;;;;;4988774;28;20042;-62
2022/12/25 00:11:55;;;;;;;6.78;3.00;;;10.00;88.60;;;;;;4982569;28;20518;-63
2022/12/25 00:14:21;;;;;;;3.17;2.50;;;10.00;88.90;;;;;;4987258;28;20049;-62
2022/12/25 00:16:47;;;;;;;3.42;2.60;;;9.90;89.00;;;;;;4984769;28;20042;-63
2022/12/25 00:19:12;;;;;;;3.03;2.67;;;9.80;89.10;;;;;;4988398;28;20043;-62
2022/12/25 00:21:38;;;;;;;4.68;2.50;;;9.80;89.20;;;;;;4983581;28;20335;-62
2022/12/25 00:24:04;;;;;;;3.70;2.90;;;9.80;89.30;;;;;;4986850;28;20514;-61
2022/12/25 00:26:29;;;;;;;3.17;2.80;;;9.70;89.40;;;;;;4983441;28;20046;-63
2022/12/25 00:28:56;;;;;;;3.53;3.20;;;9.70;89.40;;;;;;4984753;28;20039;-62
2022/12/25 00:31:22;;;;;;;4.22;3.50;;;9.70;89.50;;;;;;4987860;28;20147;-62
2022/12/25 00:33:49;;;;;;;3.67;2.95;;;9.70;89.60;;;;;;4988172;28;20466;-62
2022/12/25 00:36:17;;;;;;;3.85;2.92;;;9.70;89.70;;;;;;4987397;28;20066;-61
2022/12/25 00:38:44;;;;;;;3.97;2.88;;;9.70;89.90;;;;;;4983081;28;20046;-61
2022/12/25 00:41:13;;;;;;;3.83;3.08;;;9.60;89.90;;;;;;4989282;28;20474;-61
2022/12/25 00:43:40;;;;;;;7.05;3.75;;;9.70;90.00;;;;;;4989549;28;20030;-62
2022/12/25 00:46:07;;;;;;;4.05;3.30;;;9.60;89.90;;;;;;4986721;28;20030;-62
2022/12/25 00:48:34;;;;;;;3.80;3.13;;;9.60;89.90;;;;;;4986982;28;20034;-62
2022/12/25 00:51:01;;;;;;;3.50;3.13;;;9.70;89.90;;;;;;4985461;28;20034;-62
2022/12/25 00:53:28;;;;;;;3.55;3.10;;;9.70;89.90;;;;;;4986785;28;20494;-63
2022/12/25 00:55:56;;;;;;;3.65;3.38;;;9.70;89.70;;;;;;4986910;28;20525;-62
2022/12/25 00:58:23;;;;;;;4.03;3.40;;;9.70;89.70;;;;;;4988977;28;20045;-62
2022/12/25 01:00:48;;;;;;;5.53;3.95;;;9.70;89.60;;;;;;4987192;28;20066;-63
2022/12/25 01:03:15;;;;;;;4.22;3.60;;;9.80;89.70;;;;;;4986696;28;20465;-61
2022/12/25 01:05:41;;;;;;;3.83;3.40;;;9.70;89.50;;;;;;4986928;28;20125;-61
2022/12/25 01:08:07;;;;;;;7.90;4.43;;;9.80;89.50;;;;;;4987122;28;20118;-62
2022/12/25 01:10:33;;;;;;;6.10;4.70;;;9.70;89.40;;;;;;4983540;28;20043;-62
2022/12/25 01:12:58;;;;;;;3.92;3.50;;;9.70;89.50;;;;;;4987793;28;20037;-63
2022/12/25 01:15:24;;;;;;;3.53;3.22;;;9.70;89.60;;;;;;4987342;28;20030;-63
2022/12/25 01:17:49;;;;;;;3.50;3.13;;;9.70;89.60;;;;;;4987716;28;20033;-61
2022/12/25 01:20:16;;;;;;;3.80;3.40;;;9.60;89.70;;;;;;4987384;28;20433;-63
2022/12/25 01:22:43;;;;;;;4.28;3.20;;;9.60;89.80;;;;;;4985205;28;20426;-62
2022/12/25 01:25:10;;;;;;;3.13;2.83;;;9.50;89.90;;;;;;4998847;28;20447;-63
2022/12/25 01:27:37;;;;;;;3.70;3.30;;;9.50;90.00;;;;;;4990200;28;20522;-61
2022/12/25 01:30:04;;;;;;;3.60;3.30;;;9.40;90.10;;;;;;4988873;28;20053;-61
2022/12/25 01:32:30;;;;;;;4.60;3.90;;;9.40;90.20;;;;;;4985088;28;20034;-62
2022/12/25 01:34:56;;;;;;;4.03;3.63;;;9.40;90.30;;;;;;4986922;28;20384;-63
2022/12/25 01:37:23;;;;;;;3.95;3.40;;;9.40;90.40;;;;;;4986021;28;20085;-60
2022/12/25 01:39:49;;;;;;;3.80;3.42;;;9.40;90.50;;;;;;4986495;28;20054;-62
2022/12/25 01:42:20;;;;;;;4.72;3.60;;;9.40;90.50;;;;;;4985617;28;20038;-62
2022/12/25 01:44:45;;;;;;;5.22;3.55;;;9.40;90.60;;;;;;4985932;28;20041;-63
2022/12/25 01:47:12;;;;;;;3.63;3.33;;;9.40;90.60;;;;;;4986116;28;20047;-60
2022/12/25 01:49:39;;;;;;;3.92;3.63;;;9.40;90.60;;;;;;5001913;28;20034;-62
2022/12/25 01:52:12;;;;;;;3.92;3.50;;;9.40;90.60;;;;;;4986124;28;20114;-62
2022/12/25 01:54:45;;;;;;;5.28;4.10;;;9.50;90.60;;;;;;4985319;28;20065;-63
2022/12/25 01:57:17;;;;;;;4.32;3.92;;;9.50;90.50;;;;;;4984862;28;20034;-63
2022/12/25 01:59:44;;;;;;;4.80;3.97;;;9.50;90.50;;;;;;4986228;28;20037;-61
2022/12/25 02:02:10;;;;;;;4.70;3.85;;;9.60;90.50;;;;;;4984878;28;20038;-62
2022/12/25 02:04:49;;;;;;;6.90;3.85;;;9.60;90.40;;;;;;4983927;28;20121;-62
2022/12/25 02:07:24;;;;;;;4.53;4.05;;;9.50;90.40;;;;;;4984905;28;20121;-63
2022/12/25 02:09:50;;;;;;;3.92;3.50;;;9.60;90.40;;;;;;4985702;28;20026;-62
2022/12/25 02:12:23;;;;;;;3.90;3.50;;;9.60;90.40;;;;;;4981465;28;20958;-63
2022/12/25 02:14:50;;;;;;;3.78;3.33;;;9.60;90.40;;;;;;4985097;28;20532;-63
2022/12/25 02:17:23;;;;;;;3.80;3.50;;;9.70;90.40;;;;;;4984753;28;20077;-63
2022/12/25 02:20:07;;;;;;;4.22;3.40;;;9.70;90.40;;;;;;4981952;28;20045;-61
2022/12/25 02:22:51;;;;;;;3.83;3.38;;;9.70;90.30;;;;;;4982224;28;20037;-62
2022/12/25 02:25:28;;;;;;;3.47;3.15;;;9.70;90.20;;;;;;4984797;28;20395;-63
2022/12/25 02:28:12;;;;;;;4.10;3.45;;;9.80;90.20;;;;;;4984846;28;20046;-62
2022/12/25 02:30:50;;;;;;;3.55;3.25;;;9.80;90.20;;;;;;4981034;28;20030;-62
2022/12/25 02:36:23;;;;;;;6.05;3.45;;;9.80;90.10;;;;;;4984284;28;20593;-62
2022/12/25 02:41:46;;;;;;;4.05;3.25;;;9.80;90.00;;;;;;4982881;28;20349;-63
2022/12/25 03:07:21;;;;;;;4.55;4.07;;;9.80;90.00;;;;;;4984665;28;20069;-61
2022/12/25 03:12:43;;;;;;;4.18;3.78;;;9.80;90.00;;;;;;4986528;28;20041;-62
2022/12/25 03:17:57;;;;;;;4.40;4.00;;;9.80;90.00;;;;;;4991705;28;20080;-62
2022/12/25 03:28:38;;;;;;;4.75;4.30;;;9.80;90.00;;;;;;4990931;28;20037;-62
2022/12/25 03:31:19;;;;;;;5.75;4.65;;;9.80;89.90;;;;;;4987890;28;20031;-62
2022/12/25 04:36:11;;;;;;;6.93;5.55;;;9.70;90.00;;;;;;4986770;28;20116;-63
2022/12/25 04:38:37;;;;;;;6.60;5.75;;;9.60;90.10;;;;;;4986465;28;20030;-62
2022/12/25 04:41:03;;;;;;;6.45;5.82;;;9.60;90.20;;;;;;4984565;28;20478;-62
2022/12/25 04:43:29;;;;;;;6.65;5.97;;;9.70;90.20;;;;;;4984689;28;20062;-63
2022/12/25 04:45:56;;;;;;;6.90;6.20;;;9.60;90.10;;;;;;4984892;28;20101;-60
2022/12/25 04:48:22;;;;;;;7.15;5.80;;;9.60;90.10;;;;;;4985282;28;20034;-61
2022/12/25 04:50:48;;;;;;;6.82;6.20;;;9.70;90.10;;;;;;4984329;28;20035;-63
2022/12/25 04:53:14;;;;;;;7.43;6.40;;;9.60;90.00;;;;;;4984338;28;20121;-62
2022/12/25 04:55:39;;;;;;;6.85;5.60;;;9.60;90.00;;;;;;4986215;28;20177;-62
2022/12/25 04:58:05;;;;;;;11.80;9.75;;;9.60;90.00;;;;;;4987410;28;20129;-60
2022/12/25 05:00:31;;;;;;;11.18;8.55;;;9.60;90.00;;;;;;4985999;28;20026;-62
2022/12/25 05:02:57;;;;;;;15.25;12.05;;;9.60;90.00;;;;;;4994231;28;20058;-63
2022/12/25 05:05:23;;;;;;;12.07;9.25;;;9.60;89.90;;;;;;4991967;28;20084;-63
2022/12/25 05:07:48;;;;;;;10.07;8.60;;;9.60;89.90;;;;;;4986931;28;20570;-63
2022/12/25 05:10:14;;;;;;;10.45;8.13;;;9.50;89.60;;;;;;4984393;28;20038;-62
2022/12/25 05:12:40;;;;;;;9.07;7.07;;;9.60;89.60;;;;;;4982839;28;20096;-60
2022/12/25 05:15:06;;;;;;;7.68;6.90;;;9.60;89.50;;;;;;4987081;28;20121;-62
2022/12/25 05:17:31;;;;;;;7.43;6.65;;;9.50;89.50;;;;;;4986370;28;20498;-62
2022/12/25 05:19:57;;;;;;;8.48;6.70;;;9.50;89.30;;;;;;4986819;28;20112;-62
2022/12/25 05:22:22;;;;;;;6.90;6.20;;;9.50;89.30;;;;;;4984803;28;20031;-60
2022/12/25 05:24:48;;;;;;;7.63;5.57;;;9.50;89.20;;;;;;4983526;28;20462;-62
2022/12/25 05:27:14;;;;;;;7.25;5.78;;;9.50;89.30;;;;;;4986244;28;20068;-62
2022/12/25 05:29:39;;;;;;;7.28;6.25;;;9.50;89.30;;;;;;4987363;28;20510;-62
2022/12/25 05:32:05;;;;;;;6.82;6.15;;;9.50;89.50;;;;;;4985415;28;20038;-60
2022/12/25 05:34:31;;;;;;;7.57;6.18;;;9.50;89.50;;;;;;4986452;28;20038;-62
2022/12/25 05:36:57;;;;;;;9.77;8.45;;;9.50;89.60;;;;;;4985681;28;20050;-64
2022/12/25 05:39:22;;;;;;;10.15;8.48;;;9.50;89.60;;;;;;4986056;28;20456;-62
2022/12/25 05:41:48;;;;;;;9.43;7.90;;;9.50;89.70;;;;;;4986430;28;20133;-63
2022/12/25 05:44:13;;;;;;;10.52;8.45;;;9.50;89.80;;;;;;4986657;28;20042;-62
2022/12/25 05:46:39;;;;;;;10.00;8.45;;;9.50;89.70;;;;;;4985038;28;20062;-60
2022/12/25 05:49:05;;;;;;;11.02;9.07;;;9.50;90.20;;;;;;4985901;28;20549;-63
2022/12/25 05:51:31;;;;;;;10.15;8.57;;;9.50;89.90;;;;;;4981861;28;20030;-62
2022/12/25 05:53:56;;;;;;;11.10;8.60;;;9.50;89.80;;;;;;4985628;28;20080;-61
2022/12/25 05:56:22;;;;;;;9.90;8.65;;;9.50;89.80;;;;;;4984112;28;20589;-60
2022/12/25 05:58:48;;;;;;;9.93;8.60;;;9.50;89.80;;;;;;4985280;28;20046;-62
2022/12/25 06:01:16;;;;;;;8.82;7.93;;;9.50;89.90;;;;;;4984866;28;20433;-63
2022/12/25 06:03:42;;;;;;;9.07;7.68;;;9.50;89.90;;;;;;4985123;28;20057;-63
2022/12/25 06:06:08;;;;;;;11.32;8.02;;;9.40;89.80;;;;;;4982164;28;20126;-63
2022/12/25 06:08:33;;;;;;;7.68;6.68;;;9.40;89.90;;;;;;4985183;28;20073;-63
2022/12/25 06:11:03;;;;;;;8.32;7.30;;;9.40;89.80;;;;;;4982799;28;20030;-63
2022/12/25 06:13:29;;;;;;;8.45;7.35;;;9.40;89.90;;;;;;4982141;28;20038;-61
2022/12/25 06:15:54;;;;;;;8.88;7.80;;;9.30;90.00;;;;;;4982854;28;20038;-61
2022/12/25 06:18:20;;;;;;;11.07;8.60;;;9.30;90.10;;;;;;4985452;28;20132;-60
2022/12/25 06:20:45;;;;;;;9.90;8.48;;;9.30;90.10;;;;;;4982396;28;20051;-63
2022/12/25 06:23:11;;;;;;;12.15;9.38;;;9.30;90.20;;;;;;4984788;28;20042;-60
2022/12/25 06:25:39;;;;;;;12.30;8.85;;;9.20;90.20;;;;;;4984041;28;20422;-63
2022/12/25 06:28:06;;;;;;;11.90;9.60;;;9.20;90.30;;;;;;4984203;28;20042;-60
2022/12/25 06:30:32;;;;;;;11.60;9.50;;;9.20;90.40;;;;;;4985902;28;20041;-61
2022/12/25 06:33:01;;;;;;;10.98;9.63;;;9.20;90.50;;;;;;4980204;28;20117;-60
2022/12/25 06:35:26;;;;;;;11.52;9.40;;;9.20;90.50;;;;;;4985455;28;20156;-62
2022/12/25 06:37:52;;;;;;;11.98;9.48;;;9.20;90.90;;;;;;4983672;28;20034;-62
2022/12/25 06:40:18;;;;;;;12.07;9.45;;;9.30;90.50;;;;;;4984032;28;20042;-62
2022/12/25 06:42:43;;;;;;;11.13;9.48;;;9.20;90.40;;;;;;4983781;28;20105;-62
2022/12/25 06:45:10;;;;;;;13.45;9.65;;;9.20;90.40;;;;;;4983922;28;20042;-62
2022/12/25 06:47:38;;;;;;;9.38;8.27;;;9.20;90.40;;;;;;4983280;28;20092;-62
2022/12/25 06:50:05;;;;;;;9.95;8.23;;;9.30;90.30;;;;;;4981319;28;20038;-60
2022/12/25 06:52:32;;;;;;;9.75;8.30;;;9.20;90.30;;;;;;4983075;28;20499;-62
2022/12/25 06:54:57;;;;;;;13.20;9.63;;;9.30;90.40;;;;;;4982585;28;20406;-63
2022/12/25 06:57:23;;;;;;;12.90;10.00;;;9.20;90.10;;;;;;4984131;28;20035;-63
2022/12/25 06:59:48;;;;;;;13.18;9.88;;;9.30;90.00;;;;;;4984752;28;20406;-61
2022/12/25 07:02:20;;;;;;;11.05;9.15;;;9.20;89.80;;;;;;4984407;28;20039;-61
2022/12/25 07:04:46;;;;;;;10.88;9.30;;;9.20;89.70;;;;;;4984298;28;20046;-61
2022/12/25 07:07:12;;;;;;;9.38;7.85;;;9.20;89.70;;;;;;4982864;28;20077;-62
2022/12/25 07:09:38;;;;;;;10.00;8.43;;;9.10;89.40;;;;;;4986413;28;20062;-62
2022/12/25 07:12:15;;;;;;;10.57;8.15;;;9.10;89.30;;;;;;4982653;28;20600;-63
2022/12/25 07:14:41;;;;;;;11.23;8.48;;;9.10;89.00;;;;;;4984895;28;20071;-64
2022/12/25 07:17:07;;;;;;;9.35;8.25;;;9.00;88.90;;;;;;4981457;28;20069;-62
2022/12/25 07:19:32;;;;;;;9.43;7.82;;;9.00;89.20;;;;;;4980777;28;20065;-62
2022/12/25 07:21:58;;;;;;;10.25;8.38;;;9.00;89.00;;;;;;4985474;28;20038;-61
2022/12/25 07:24:24;;;;;;;10.70;9.18;;;8.90;88.60;;;;;;4985163;28;20034;-62
2022/12/25 07:26:50;;;;;;;9.15;6.90;;;8.90;88.60;;;;;;4982144;28;20041;-62
2022/12/25 07:29:16;;;;;;;9.57;7.60;;;8.80;88.60;;;;;;4984174;28;20450;-61
2022/12/25 07:31:42;;;;;;;12.23;9.10;;;8.80;88.70;;;;;;4981492;28;20050;-62
2022/12/25 07:34:08;;;;;;;15.90;9.27;;;8.70;88.60;;;;;;4980969;28;20038;-60
2022/12/25 07:36:33;;;;;;;17.35;9.65;;;8.70;88.60;;;;;;4985311;28;20026;-63
2022/12/25 07:38:59;;;;;;;59.97;10.32;;;8.70;88.90;;;;;;4986460;28;20406;-64
2022/12/25 07:41:25;;;;;;;20.95;10.00;;;8.70;89.20;;;;;;4983053;28;20034;-64
2022/12/25 07:43:52;;;;;;;52.10;11.82;;;8.70;89.20;;;;;;4983435;28;20037;-63
2022/12/25 07:46:22;;;;;;;43.75;15.40;;;8.60;89.30;;;;;;4982764;28;20410;-64
2022/12/25 07:48:48;;;;;;;91.57;15.68;;;8.60;89.50;;;;;;4985082;28;20419;-63
2022/12/25 07:51:15;;;;;;;76.22;12.23;;;8.60;89.70;;;;;;4984814;28;20034;-63
2022/12/25 07:53:41;;;;;;;24.58;12.30;;;8.60;89.80;;;;;;4981219;28;20034;-60
2022/12/25 07:56:11;;;;;;;52.67;11.20;;;8.60;89.90;;;;;;4966876;28;20039;-60
2022/12/25 07:58:37;;;;;;;40.45;9.00;;;8.60;90.00;;;;;;4972062;28;20414;-65
2022/12/25 08:01:05;;;;;;;46.50;10.88;;;8.60;90.00;;;;;;4974251;28;20046;-63
2022/12/25 08:03:32;;;;;;;48.30;12.85;;;8.60;90.00;;;;;;4977876;28;20517;-61
2022/12/25 08:06:02;;;;;;;64.13;13.60;;;8.70;90.00;;;;;;4981787;28;20088;-64
2022/12/25 08:08:28;;;;;;;94.05;15.18;;;8.70;90.00;;;;;;4981484;28;20037;-64
2022/12/25 08:10:53;;;;;;;51.28;12.13;;;8.70;90.00;;;;;;4975044;28;20998;-65
2022/12/25 08:13:19;;;;;;;72.32;13.05;;;8.70;90.00;;;;;;4977988;28;20505;-64
2022/12/25 08:15:45;;;;;;;88.40;11.55;;;8.70;89.90;;;;;;4978778;28;20062;-63
2022/12/25 08:18:10;;;;;;;30.92;11.10;;;8.70;89.80;;;;;;4983296;28;20038;-65
2022/12/25 08:20:36;;;;;;;52.33;11.75;;;8.60;89.80;;;;;;4980473;28;20030;-64
2022/12/25 08:23:03;;;;;;;60.78;12.32;;;8.70;90.00;;;;;;4981071;28;20475;-65
2022/12/25 08:25:28;;;;;;;114.97;13.88;;;8.70;90.10;;;;;;4981601;28;20510;-63
2022/12/25 08:27:54;;;;;;;87.60;12.90;;;8.60;90.10;;;;;;4982803;28;20145;-62
2022/12/25 08:30:19;;;;;;;83.25;12.40;;;8.60;90.20;;;;;;4981876;28;20026;-64
2022/12/25 08:32:45;;;;;;;95.05;10.77;;;8.70;90.60;;;;;;4974889;28;20042;-64
2022/12/25 08:35:11;;;;;;;96.53;10.00;;;8.70;90.30;;;;;;4976872;28;20108;-64
2022/12/25 08:37:36;;;;;;;104.05;10.57;;;8.70;90.30;;;;;;4976071;28;20137;-61
2022/12/25 08:40:02;;;;;;;143.63;9.15;;;8.70;90.30;;;;;;4981912;28;20046;-64
2022/12/25 08:42:27;;;;;;;88.43;8.68;;;8.70;90.20;;;;;;4981765;28;20041;-65
2022/12/25 08:44:53;;;;;;;132.63;10.20;;;8.70;90.20;;;;;;4983570;28;20041;-64
2022/12/25 08:47:19;;;;;;;119.88;8.60;;;8.70;90.20;;;;;;4979077;28;20046;-65
2022/12/25 08:49:44;;;;;;;148.43;10.30;;;8.70;90.30;;;;;;4979428;28;20034;-64
2022/12/25 08:52:10;;;;;;;73.13;9.55;;;8.70;90.30;;;;;;4977304;28;20034;-63
2022/12/25 08:54:36;;;;;;;112.15;10.05;;;8.70;90.30;;;;;;4979425;28;20115;-64
2022/12/25 08:57:02;;;;;;;189.85;11.57;;;8.70;90.40;;;;;;4982294;28;20046;-63
2022/12/25 08:59:29;;;;;;;72.07;8.52;;;8.60;90.40;;;;;;4981464;28;20549;-63
2022/12/25 09:01:54;;;;;;;44.55;7.57;;;8.60;90.40;;;;;;4983751;28;20134;-64
2022/12/25 09:04:20;;;;;;;154.75;8.20;;;8.60;90.50;;;;;;4983942;28;20030;-64
2022/12/25 09:06:46;;;;;;;78.55;7.68;;;8.60;90.60;;;;;;4977979;28;20039;-64
2022/12/25 09:09:11;;;;;;;104.93;9.88;;;8.60;90.60;;;;;;4979018;28;20082;-64
2022/12/25 09:11:37;;;;;;;80.10;8.18;;;8.60;90.60;;;;;;4974516;28;20039;-65
2022/12/25 09:14:03;;;;;;;80.00;8.18;;;8.60;90.60;;;;;;4979229;28;20053;-64
2022/12/25 09:16:28;;;;;;;85.70;7.95;;;8.60;90.60;;;;;;4995326;28;20173;-62
2022/12/25 09:18:56;;;;;;;44.97;7.95;;;8.50;90.70;;;;;;4984288;28;20042;-65
2022/12/25 09:21:21;;;;;;;24.02;8.18;;;8.50;90.70;;;;;;4981357;28;20447;-63
2022/12/25 09:23:47;;;;;;;22.17;6.13;;;8.50;90.80;;;;;;4980826;28;20114;-62
2022/12/25 09:26:16;;;;;;;61.80;7.65;;;8.50;90.80;;;;;;4981340;28;20556;-64
2022/12/25 09:28:42;;;;;;;10.70;6.10;;;8.50;90.80;;;;;;4983104;28;20038;-62
2022/12/25 09:31:07;;;;;;;14.50;6.55;;;8.50;90.80;;;;;;4981212;28;20034;-64
2022/12/25 09:33:33;;;;;;;17.60;7.50;;;8.50;90.90;;;;;;4982385;28;20044;-62
2022/12/25 09:36:02;;;;;;;21.08;6.68;;;8.50;91.00;;;;;;4980899;28;20125;-64
2022/12/25 09:38:28;;;;;;;16.30;7.22;;;8.50;91.00;;;;;;4980574;28;20092;-63
2022/12/25 09:41:04;;;;;;;13.57;7.97;;;8.50;91.00;;;;;;4979560;28;20058;-64
2022/12/25 09:43:32;;;;;;;22.92;8.38;;;8.60;91.10;;;;;;4982777;28;20090;-64
2022/12/25 09:46:01;;;;;;;16.08;8.23;;;8.70;91.10;;;;;;4982249;28;20524;-64
2022/12/25 09:48:31;;;;;;;12.25;8.60;;;8.70;91.10;;;;;;4979927;28;20034;-65
2022/12/25 09:51:05;;;;;;;27.90;8.25;;;8.70;91.10;;;;;;4979690;28;20035;-65
2022/12/25 09:53:44;;;;;;;26.63;7.88;;;8.80;91.10;;;;;;4980087;28;20031;-63
2022/12/25 09:56:15;;;;;;;32.20;8.77;;;8.80;91.10;;;;;;4980917;28;20122;-63
2022/12/25 09:58:44;;;;;;;14.52;9.50;;;8.80;91.00;;;;;;4977231;28;20038;-62
2022/12/25 10:01:51;;;;;;;31.23;7.82;;;8.90;91.00;;;;;;4980551;28;20057;-63
2022/12/25 10:04:38;;;;;;;41.97;9.15;;;8.90;91.10;;;;;;4982041;28;20125;-62
2022/12/25 10:07:10;;;;;;;30.48;9.23;;;8.90;91.00;;;;;;4981560;28;20046;-64
2022/12/25 10:09:52;;;;;;;19.63;8.30;;;8.90;91.00;;;;;;4981291;28;20053;-63
2022/12/25 10:12:52;;;;;;;13.18;8.77;;;9.00;91.10;;;;;;4976447;28;20141;-63
2022/12/25 10:15:24;;;;;;;28.92;8.30;;;9.00;91.10;;;;;;4981573;28;20038;-64
2022/12/25 10:18:27;;;;;;;59.20;9.48;;;9.00;91.10;;;;;;4981473;28;20561;-64
2022/12/25 10:20:55;;;;;;;140.18;10.27;;;9.10;91.20;;;;;;4974965;28;20047;-62
2022/12/25 10:23:35;;;;;;;73.35;9.32;;;9.10;91.00;;;;;;4985192;28;20034;-63
2022/12/25 10:26:03;;;;;;;47.40;9.75;;;9.10;91.00;;;;;;4981578;28;20038;-62
2022/12/25 10:28:42;;;;;;;51.05;9.88;;;9.10;91.00;;;;;;5001936;28;20031;-62
2022/12/25 10:31:21;;;;;;;43.58;11.63;;;9.20;91.10;;;;;;4982647;28;20034;-64
2022/12/25 10:33:49;;;;;;;21.40;11.85;;;9.20;91.20;;;;;;4986588;28;20121;-63
2022/12/25 10:36:18;;;;;;;56.30;12.23;;;9.20;91.20;;;;;;4985850;28;20046;-62
2022/12/25 10:38:45;;;;;;;31.33;10.55;;;9.30;91.30;;;;;;4976770;28;20049;-64
2022/12/25 10:41:55;;;;;;;23.67;11.65;;;9.40;91.30;;;;;;4979754;28;20038;-63
2022/12/25 10:44:25;;;;;;;14.45;10.30;;;9.40;91.60;;;;;;4981559;28;20042;-63
2022/12/25 10:46:53;;;;;;;18.95;14.27;;;9.50;91.40;;;;;;4984035;28;20114;-64
2022/12/25 10:49:21;;;;;;;16.98;12.63;;;9.50;91.50;;;;;;4986361;28;20093;-60
2022/12/25 10:51:47;;;;;;;18.90;12.50;;;9.60;91.50;;;;;;4985885;28;20034;-62
2022/12/25 10:54:29;;;;;;;16.23;10.95;;;9.70;91.60;;;;;;4984325;28;20407;-64
2022/12/25 10:56:57;;;;;;;18.55;12.13;;;9.70;91.70;;;;;;4977654;28;20536;-62
2022/12/25 10:59:26;;;;;;;16.88;11.38;;;9.80;91.60;;;;;;4982444;28;20518;-64
2022/12/25 11:01:52;;;;;;;14.98;11.10;;;9.90;91.60;;;;;;4986220;28;20406;-64
2022/12/25 11:04:25;;;;;;;51.95;11.07;;;10.00;91.60;;;;;;4984475;28;20548;-62
2022/12/25 11:07:22;;;;;;;16.13;10.25;;;10.00;91.90;;;;;;4985583;28;20038;-64
2022/12/25 11:09:54;;;;;;;24.10;10.57;;;10.10;91.50;;;;;;4986594;28;20031;-63
2022/12/25 11:12:33;;;;;;;69.07;10.23;;;10.10;91.30;;;;;;4983013;28;20187;-62
2022/12/25 11:15:02;;;;;;;37.72;9.57;;;10.10;91.30;;;;;;4986742;28;20388;-62
2022/12/25 11:17:28;;;;;;;49.80;9.60;;;10.10;91.20;;;;;;4987146;28;20034;-63
2022/12/25 11:20:02;;;;;;;57.78;10.32;;;10.10;91.10;;;;;;4986933;28;20041;-64
2022/12/25 11:22:28;;;;;;;70.10;9.02;;;10.10;91.30;;;;;;4985473;28;20034;-61
2022/12/25 11:24:54;;;;;;;46.92;9.15;;;10.00;91.20;;;;;;4986743;28;20402;-63
2022/12/25 11:27:28;;;;;;;65.53;9.52;;;10.00;91.20;;;;;;4987071;28;20049;-62
2022/12/25 11:29:59;;;;;;;38.13;8.60;;;10.00;91.30;;;;;;4986915;28;20466;-62
2022/12/25 11:32:42;;;;;;;46.67;8.68;;;10.00;91.20;;;;;;4988362;28;20685;-64
2022/12/25 11:35:16;;;;;;;27.95;8.05;;;10.00;91.20;;;;;;4989221;28;20472;-62
2022/12/25 11:37:48;;;;;;;13.05;8.57;;;10.00;91.20;;;;;;4991515;28;20050;-61
2022/12/25 11:40:27;;;;;;;11.90;8.32;;;10.00;91.30;;;;;;4985296;28;20041;-63
2022/12/25 11:43:03;;;;;;;13.40;8.88;;;10.00;91.50;;;;;;4985297;28;20125;-63
2022/12/25 11:45:37;;;;;;;12.27;9.70;;;10.00;91.50;;;;;;4988651;28;20169;-64
2022/12/25 11:48:20;;;;;;;11.38;8.60;;;10.00;91.50;;;;;;4989645;28;20214;-62
2022/12/25 11:51:01;;;;;;;11.38;8.77;;;10.10;91.70;;;;;;4985051;28;20053;-63
2022/12/25 11:53:38;;;;;;;13.10;10.23;;;10.10;91.70;;;;;;4990042;28;20034;-63
2022/12/25 11:56:21;;;;;;;12.75;9.60;;;10.20;91.70;;;;;;4985385;28;20405;-61
2022/12/25 11:58:51;;;;;;;13.05;10.30;;;10.30;91.70;;;;;;4987316;28;20046;-62
2022/12/25 12:01:43;;;;;;;16.27;11.77;;;10.40;91.60;;;;;;4984948;28;20573;-63
2022/12/25 12:04:31;;;;;;;15.25;11.50;;;10.40;91.70;;;;;;4984790;28;20045;-60
2022/12/25 12:07:06;;;;;;;13.93;10.68;;;10.50;91.60;;;;;;4984804;28;20045;-63
2022/12/25 12:09:53;;;;;;;7.95;6.82;;;10.60;91.60;;;;;;4987929;28;20113;-62
2022/12/25 12:12:27;;;;;;;7.05;6.35;;;10.60;91.50;;;;;;4982996;28;20137;-63
2022/12/25 12:14:57;;;;;;;8.32;7.43;;;10.70;91.80;;;;;;4981466;28;20042;-63
2022/12/25 12:17:23;;;;;;;8.50;6.70;;;10.80;91.50;;;;;;4988512;28;20609;-62
2022/12/25 12:19:49;;;;;;;7.28;6.03;;;10.80;91.50;;;;;;4988406;28;20129;-63
2022/12/25 12:22:26;;;;;;;7.25;6.10;;;10.80;91.40;;;;;;4984368;28;20422;-63
2022/12/25 12:24:57;;;;;;;6.28;5.63;;;10.80;91.40;;;;;;4988540;28;20498;-62
2022/12/25 12:27:42;;;;;;;6.93;6.22;;;10.80;91.40;;;;;;4988481;28;20133;-61
2022/12/25 12:30:44;;;;;;;6.78;6.10;;;10.90;91.50;;;;;;4986605;28;20239;-63
2022/12/25 12:33:18;;;;;;;7.25;6.50;;;10.90;91.40;;;;;;4980873;28;20093;-63
2022/12/25 12:35:44;;;;;;;;;;;11.00;91.30;;;;;;4986171;28;20038;-64
2022/12/25 12:38:19;;;;;;;6.75;6.05;;;11.00;91.40;;;;;;4983149;28;20298;-63
2022/12/25 12:40:50;;;;;;;7.10;6.28;;;11.10;91.20;;;;;;4987804;28;20184;-63
2022/12/25 12:43:39;;;;;;;6.28;5.68;;;11.10;91.20;;;;;;4985352;28;20046;-62
2022/12/25 12:46:19;;;;;;;7.38;6.57;;;11.10;91.20;;;;;;4988039;28;20056;-62
2022/12/25 12:48:47;;;;;;;7.00;6.30;;;11.20;91.50;;;;;;4984400;28;20125;-63
2022/12/25 12:51:26;;;;;;;7.50;6.60;;;11.20;91.20;;;;;;4986766;28;20101;-62
2022/12/25 12:54:20;;;;;;;8.27;6.72;;;11.30;91.20;;;;;;4983646;28;20562;-62
2022/12/25 12:57:05;;;;;;;7.50;6.70;;;11.30;91.20;;;;;;4983901;28;20049;-63
2022/12/25 12:59:45;;;;;;;8.35;7.05;;;11.40;91.10;;;;;;4985440;28;20081;-64
2022/12/25 13:02:26;;;;;;;8.20;7.35;;;11.40;91.10;;;;;;4983562;28;20037;-63
2022/12/25 13:05:05;;;;;;;8.25;7.30;;;11.50;91.10;;;;;;4985072;28;20054;-60
2022/12/25 13:07:50;;;;;;;8.77;7.30;;;11.60;91.20;;;;;;4980667;28;20053;-62
2022/12/25 13:10:32;;;;;;;9.77;7.78;;;11.60;91.10;;;;;;4999036;28;20037;-64
2022/12/25 13:13:01;;;;;;;8.30;7.40;;;11.70;91.00;;;;;;4985943;28;20306;-62
2022/12/25 13:15:30;;;;;;;9.57;7.88;;;11.70;91.00;;;;;;4984001;28;20711;-63
2022/12/25 13:18:03;;;;;;;8.88;7.13;;;11.70;91.00;;;;;;4984903;28;20031;-63
2022/12/25 13:20:42;;;;;;;7.90;6.72;;;11.80;91.10;;;;;;4982933;28;20033;-62
2022/12/25 13:23:31;;;;;;;8.60;7.70;;;11.80;91.20;;;;;;4980018;28;20066;-63
2022/12/25 13:25:59;;;;;;;7.70;6.85;;;11.80;91.20;;;;;;4982100;28;20039;-64
2022/12/25 13:28:30;;;;;;;7.15;6.35;;;11.90;91.10;;;;;;4983343;28;20042;-63
2022/12/25 13:31:16;;;;;;;7.05;6.35;;;11.90;91.10;;;;;;4983963;28;20038;-62
2022/12/25 13:34:03;;;;;;;7.43;6.22;;;11.90;91.00;;;;;;4987482;28;20490;-64
2022/12/25 13:36:34;;;;;;;7.53;6.47;;;12.00;91.00;;;;;;4981809;28;20073;-64
2022/12/25 13:39:00;;;;;;;7.65;6.47;;;12.00;91.00;;;;;;4979868;28;20038;-63
2022/12/25 13:44:32;;;;;;;7.63;6.78;;;12.10;91.00;;;;;;4986067;28;20112;-61
2022/12/25 13:47:15;;;;;;;8.18;6.97;;;12.10;91.00;;;;;;4985217;28;20062;-64
2022/12/25 13:49:41;;;;;;;7.18;6.47;;;12.10;91.00;;;;;;4983909;28;20027;-63
2022/12/25 13:52:12;;;;;;;6.97;6.28;;;12.20;90.90;;;;;;4982789;28;20085;-63
2022/12/25 13:54:38;;;;;;;6.70;6.00;;;12.20;90.80;;;;;;4986452;28;20034;-63
2022/12/25 13:57:11;;;;;;;7.22;6.18;;;12.20;90.80;;;;;;4983889;28;20125;-63
2022/12/25 13:59:37;;;;;;;7.00;6.30;;;12.20;90.80;;;;;;4987846;28;20038;-63
2022/12/25 14:02:03;;;;;;;6.75;6.05;;;12.20;90.70;;;;;;4982484;28;20066;-61
2022/12/25 14:04:29;;;;;;;6.65;5.97;;;12.20;90.70;;;;;;4985662;28;20034;-62
2022/12/25 14:06:54;;;;;;;7.38;6.57;;;12.30;90.70;;;;;;4985725;28;20533;-63
2022/12/25 14:09:21;;;;;;;6.32;5.72;;;12.30;90.60;;;;;;4987049;28;20034;-62
2022/12/25 14:11:50;;;;;;;6.95;5.85;;;12.30;90.60;;;;;;4982443;28;20038;-64
2022/12/25 14:14:23;;;;;;;9.23;6.07;;;12.30;90.60;;;;;;4986863;28;20039;-63
2022/12/25 14:16:52;;;;;;;6.18;5.63;;;12.40;90.60;;;;;;4982073;28;20042;-64
2022/12/25 14:19:28;;;;;;;7.13;6.00;;;12.40;90.50;;;;;;4982341;28;20038;-62
2022/12/25 14:22:09;;;;;;;5.95;5.35;;;12.40;90.30;;;;;;4980005;28;20117;-63
2022/12/25 14:24:36;;;;;;;7.32;5.80;;;12.40;90.20;;;;;;4981865;28;20133;-62
2022/12/25 14:27:05;;;;;;;5.88;5.28;;;12.40;90.20;;;;;;4985669;28;20583;-62
2022/12/25 14:29:40;;;;;;;7.47;5.35;;;12.40;90.20;;;;;;4986673;28;20034;-63
2022/12/25 14:32:10;;;;;;;7.30;5.70;;;12.50;90.10;;;;;;4980633;28;20112;-62
2022/12/25 14:34:36;;;;;;;7.75;5.75;;;12.50;90.10;;;;;;4985726;28;20516;-63
2022/12/25 14:37:18;;;;;;;6.45;5.53;;;12.50;90.00;;;;;;4980954;28;20045;-64
2022/12/25 14:39:46;;;;;;;5.72;5.22;;;12.50;90.00;;;;;;4980396;28;20065;-63
2022/12/25 14:42:21;;;;;;;5.82;5.32;;;12.50;90.00;;;;;;4986131;28;20044;-61
2022/12/25 14:45:00;;;;;;;7.85;5.13;;;12.50;90.00;;;;;;4981674;28;20038;-62
2022/12/25 14:47:26;;;;;;;5.88;5.38;;;12.50;89.70;;;;;;4983223;28;20148;-61
2022/12/25 14:49:53;;;;;;;6.88;6.18;;;12.40;89.70;;;;;;4985270;28;20034;-62
2022/12/25 14:52:21;;;;;;;7.78;6.35;;;12.40;89.70;;;;;;4983732;28;20088;-63